Englewood, CO (80155)

8:24 AM MDT on September 23, 2014 (GMT -0600)
Walnut Hills | Change Station
CLOSE
Current Station
Personal Weather Station
Location: Centennial, CO
Elevation: 5800 ft
Nearby Weather Stations

Elev 5800 ft 39.59 °N, 104.89 °W | Updated 18 minutes ago

Mostly Cloudy
Mostly Cloudy
59.6 °F
Feels Like 59.6 °F
N
2.0
Wind Variable Wind from SW
Gusts 6.0 mph

Today
High -- | Low -- °F
--% Chance of Precip.
Yesterday
High -- | Low -- °F
Precip. -- in
6:48 AM 6:54 PM
Waning Crescent, 0% visible
Pressure 30.02 in
Visibility 10.0 miles
Clouds Few 9500 ft
Mostly Cloudy 11000 ft
Mostly Cloudy 14000 ft
Dew Point 46 °F
Humidity 61%
Rainfall -999.00 in
Snow Depth 0 in , 0 in , 0 in
UV 0 out of 12
Pollen 6.10 out of 12
Ozone Good
PM2.5 Good
Flu Activity Not available.
METAR KAPA 231353Z 23009KT 10SM FEW095 BKN110 BKN140 16/07 A3017 RMK AO2 SLP165 SHRA OMTNS DSNT NW T01560072

More Conditions Fewer Conditions

Pressure 30.02 in
Visibility 10.0 miles
Clouds Few 9500 ft
Mostly Cloudy 11000 ft
Mostly Cloudy 14000 ft
Dew Point 46 °F
Humidity 61%
Rainfall -999.00 in
Snow Depth 0 in , 0 in , 0 in
UV 0 out of 12
Pollen 6.10 out of 12
Ozone Good
PM2.5 Good
Flu Activity Not available.
METAR KAPA 231353Z 23009KT 10SM FEW095 BKN110 BKN140 16/07 A3017 RMK AO2 SLP165 SHRA OMTNS DSNT NW T01560072

More Conditions Fewer Conditions

10-Day Weather Forecast

Almanac

Astronomy

Sep. 23, 2014 Rise Set
Actual Time 6:48 AM MDT 6:54 PM MDT
Civil Twilight 6:21 AM MDT 7:21 PM MDT
Nautical Twilight 5:49 AM MDT 7:53 PM MDT
Astronomical Twilight 5:17 AM MDT 8:24 PM MDT
Moon 6:14 AM MDT 6:35 PM MDT
Length of Visible Light 13h 00m
Length of Day
12h 06m
Tomorrow will be 2m 35s shorter.
Waning Crescent, 0% of the Moon is Illuminated
Today
Waning Crescent
Sep 24
New
Oct 1
First Quarter
Oct 8
Full
Oct 15
Last Quarter

Today's Extremes

State Highs State Lows

Community

WunderPhotos

Upload Photos

1,755,705 photos uploaded!

Nearby

Air Quality

  Air Quality AQ Index Pollutant
Yesterday Good
OZONE
Yesterday Good
PM10
Current Good
PM2.5
Current Good
OZONE
Tuesday Moderate
PM2.5
Tuesday Good
OZONE

Snow Depth

Station Depth Elevation
Park Reservoir 0 in 9960 ft
Apishapa 0 in 10000 ft
Buckskin Joe 0 in 11150 ft
Never Summer 1 in 10280 ft
Copper Mountain 0 in 10500 ft

Earthquake Activity

City Distance Mag. Time & Date
No recent earthquake activity has been reported nearby.
Minimum magnitude displayed is 2.5.

Coastal Water Temperatures

Place Temperature
No Stations Reporting

Nearby Weather Stations